Time;durP1;ratioP1;P1;durP2;ratioP2;P2;SDS_P1;SDS_P2;PMS_P1;PMS_P2;Temp;Humidity;BMP_temperature;BMP_pressure;BME280_temperature;BME280_humidity;BME280_pressure;Samples;Min_cycle;Max_cycle;Signal;HPM_P1;HPM_P2
2021/11/04 00:00:25;;;;;;;4.78;4.38;;;7.20;99.90;;;;;;5006780;28;20196;-87
2021/11/04 00:02:51;;;;;;;4.80;4.18;;;7.30;99.90;;;;;;5004906;28;20188;-86
2021/11/04 00:05:17;;;;;;;5.43;4.93;;;6.90;99.90;;;;;;5005200;28;20184;-88
2021/11/04 00:07:45;;;;;;;6.43;4.85;;;6.90;99.90;;;;;;5008225;28;20439;-87
2021/11/04 00:10:11;;;;;;;5.97;4.50;;;7.00;99.90;;;;;;5007908;28;20188;-87
2021/11/04 00:12:37;;;;;;;5.13;4.63;;;7.10;99.90;;;;;;5005306;28;20581;-88
2021/11/04 00:15:03;;;;;;;4.70;3.87;;;6.90;99.90;;;;;;5005921;28;20431;-89
2021/11/04 00:17:29;;;;;;;6.78;5.43;;;6.90;99.90;;;;;;5005895;28;20468;-88
2021/11/04 00:19:55;;;;;;;6.07;5.37;;;7.10;99.90;;;;;;5006620;28;20188;-88
2021/11/04 00:22:20;;;;;;;5.60;4.90;;;7.20;99.90;;;;;;5006260;28;20175;-87
2021/11/04 00:24:46;;;;;;;6.57;5.90;;;7.00;99.90;;;;;;5008698;28;20642;-87
2021/11/04 00:27:12;;;;;;;6.80;5.43;;;6.90;99.90;;;;;;5003541;28;20194;-88
2021/11/04 00:29:37;;;;;;;6.00;5.40;;;7.10;99.90;;;;;;5003481;28;20231;-88
2021/11/04 00:32:04;;;;;;;5.30;4.80;;;7.10;99.90;;;;;;5004824;28;20297;-88
2021/11/04 00:34:29;;;;;;;5.72;4.38;;;7.00;99.90;;;;;;5006126;28;20242;-88
2021/11/04 00:36:56;;;;;;;5.20;4.70;;;7.10;99.90;;;;;;5009013;28;20216;-88
2021/11/04 00:39:22;;;;;;;4.47;4.07;;;6.80;99.90;;;;;;5004467;28;20555;-86
2021/11/04 00:41:47;;;;;;;4.67;4.03;;;7.00;99.90;;;;;;5002916;28;20278;-88
2021/11/04 00:44:13;;;;;;;4.63;3.60;;;7.00;99.90;;;;;;5004828;28;20592;-88
2021/11/04 00:46:39;;;;;;;4.03;3.63;;;7.00;99.90;;;;;;5008669;28;20697;-89
2021/11/04 00:49:04;;;;;;;3.80;3.50;;;7.20;99.90;;;;;;5008473;28;20196;-89
2021/11/04 00:51:30;;;;;;;5.23;3.70;;;7.00;99.90;;;;;;5002850;28;20764;-88
2021/11/04 00:53:55;;;;;;;5.30;4.10;;;7.10;99.90;;;;;;5005767;28;20176;-88
2021/11/04 00:56:21;;;;;;;6.47;4.20;;;7.00;99.90;;;;;;5006483;28;20643;-88
2021/11/04 00:58:50;;;;;;;5.83;3.70;;;7.10;99.90;;;;;;5008517;28;20799;-88
2021/11/04 01:01:20;;;;;;;29.25;20.30;;;6.90;99.90;;;;;;5002657;28;20218;-89
2021/11/04 01:03:46;;;;;;;18.85;16.48;;;7.20;99.90;;;;;;5005119;28;20571;-88
2021/11/04 01:06:12;;;;;;;18.55;15.63;;;7.00;99.90;;;;;;5006264;28;20530;-89
2021/11/04 01:08:38;;;;;;;16.63;14.10;;;6.80;99.90;;;;;;5007772;28;20199;-88
2021/11/04 01:11:04;;;;;;;23.90;20.50;;;7.00;99.90;;;;;;5003938;28;20196;-88
2021/11/04 01:13:30;;;;;;;29.25;23.17;;;7.10;99.90;;;;;;5002928;28;20270;-88
2021/11/04 01:15:55;;;;;;;36.27;28.60;;;6.90;99.90;;;;;;5007766;28;20665;-88
2021/11/04 01:18:21;;;;;;;32.17;24.17;;;7.00;99.90;;;;;;5005843;28;20184;-88
2021/11/04 01:20:46;;;;;;;42.43;31.93;;;7.10;99.90;;;;;;5004056;28;20176;-88
2021/11/04 01:23:12;;;;;;;44.80;32.50;;;6.70;99.90;;;;;;5003325;28;20191;-87
2021/11/04 01:25:37;;;;;;;48.97;33.87;;;7.10;99.90;;;;;;5007172;28;20183;-88
2021/11/04 01:28:08;;;;;;;39.30;27.33;;;6.90;99.90;;;;;;5007363;28;20192;-88
2021/11/04 01:30:34;;;;;;;48.15;34.75;;;6.80;99.90;;;;;;5003352;28;20192;-88
2021/11/04 01:32:59;;;;;;;45.65;31.42;;;7.20;99.90;;;;;;5003154;28;20239;-88
2021/11/04 01:35:25;;;;;;;39.53;27.80;;;6.90;99.90;;;;;;5001878;28;20187;-87
2021/11/04 01:37:51;;;;;;;42.43;31.97;;;6.90;99.90;;;;;;5001129;28;20184;-88
2021/11/04 01:40:16;;;;;;;52.10;36.07;;;7.00;99.90;;;;;;5005048;28;20183;-87
2021/11/04 01:42:42;;;;;;;43.07;31.73;;;7.30;99.90;;;;;;5007258;28;20188;-88
2021/11/04 01:45:08;;;;;;;52.37;38.77;;;6.90;99.90;;;;;;5007121;28;20183;-87
2021/11/04 01:47:34;;;;;;;90.10;62.80;;;7.00;99.90;;;;;;5002104;28;20717;-86
2021/11/04 01:50:00;;;;;;;74.45;47.55;;;7.10;99.90;;;;;;5002502;28;20199;-86
2021/11/04 01:52:26;;;;;;;79.20;53.17;;;7.00;99.90;;;;;;5007305;28;20207;-86
2021/11/04 01:54:52;;;;;;;59.43;40.83;;;6.90;99.90;;;;;;5010373;28;20671;-87
2021/11/04 01:57:17;;;;;;;39.93;30.83;;;7.20;99.90;;;;;;5005806;28;20415;-87
2021/11/04 01:59:43;;;;;;;29.23;24.80;;;7.20;99.90;;;;;;5006733;28;20180;-88
2021/11/04 02:02:16;;;;;;;17.03;15.37;;;6.90;99.90;;;;;;5010741;28;20210;-86
2021/11/04 02:04:57;;;;;;;14.57;13.27;;;6.80;99.90;;;;;;5010267;28;20180;-86
2021/11/04 02:07:25;;;;;;;10.80;9.85;;;7.00;99.90;;;;;;5006771;28;20657;-86
2021/11/04 02:10:14;;;;;;;11.35;10.45;;;7.10;99.90;;;;;;5006850;28;20310;-87
2021/11/04 02:12:52;;;;;;;11.80;10.80;;;6.80;99.90;;;;;;5010967;28;20219;-87
2021/11/04 02:15:20;;;;;;;10.48;9.57;;;6.80;99.90;;;;;;5008330;28;20187;-88
2021/11/04 02:17:48;;;;;;;7.18;6.57;;;6.90;99.90;;;;;;5007606;28;20184;-86
2021/11/04 02:20:26;;;;;;;5.90;5.10;;;7.00;99.90;;;;;;5005287;28;20255;-86
2021/11/04 02:23:01;;;;;;;4.80;4.50;;;7.10;99.90;;;;;;5005891;28;20195;-86
2021/11/04 02:25:30;;;;;;;5.90;5.60;;;6.80;99.90;;;;;;5008572;28;20211;-85
2021/11/04 02:28:02;;;;;;;9.02;8.40;;;6.70;99.90;;;;;;5009825;28;20271;-85
2021/11/04 02:30:29;;;;;;;3.58;3.15;;;7.00;99.90;;;;;;5003453;28;20245;-84
2021/11/04 02:32:56;;;;;;;2.00;1.90;;;7.10;99.90;;;;;;5003769;28;20738;-85
2021/11/04 02:35:23;;;;;;;2.13;1.90;;;6.70;99.90;;;;;;5004006;28;20593;-85
2021/11/04 02:37:51;;;;;;;1.92;1.83;;;7.00;99.90;;;;;;5008087;28;20181;-85
2021/11/04 02:40:19;;;;;;;1.90;1.80;;;6.70;99.90;;;;;;5007859;28;20184;-85
2021/11/04 02:42:45;;;;;;;2.50;2.30;;;6.90;99.90;;;;;;5007235;28;20227;-85
2021/11/04 02:45:13;;;;;;;3.10;2.90;;;6.80;99.90;;;;;;5005588;28;20199;-85
2021/11/04 02:47:39;;;;;;;3.10;2.80;;;6.80;99.90;;;;;;5006946;28;20566;-85
2021/11/04 02:50:06;;;;;;;2.95;2.75;;;6.90;99.90;;;;;;5009270;28;20282;-85
2021/11/04 02:52:32;;;;;;;3.00;2.80;;;6.70;99.90;;;;;;5007223;28;20222;-85
2021/11/04 02:54:59;;;;;;;3.00;2.80;;;6.90;99.90;;;;;;5009703;28;20179;-86
2021/11/04 02:57:26;;;;;;;3.97;2.78;;;6.70;99.90;;;;;;5013440;28;20434;-86
2021/11/04 02:59:52;;;;;;;3.45;2.65;;;6.90;99.90;;;;;;5016844;28;20180;-85
2021/11/04 03:02:18;;;;;;;2.70;2.50;;;6.70;99.90;;;;;;5017999;28;20219;-87
2021/11/04 03:04:43;;;;;;;2.35;2.15;;;6.70;99.90;;;;;;5013307;28;20187;-85
2021/11/04 03:07:09;;;;;;;2.07;1.97;;;6.50;99.90;;;;;;5005296;28;20604;-86
2021/11/04 03:09:34;;;;;;;4.40;2.50;;;6.50;99.90;;;;;;5004268;28;20184;-86
2021/11/04 03:12:00;;;;;;;2.00;1.80;;;6.50;99.90;;;;;;5008796;28;20211;-85
2021/11/04 03:14:26;;;;;;;1.98;1.80;;;6.50;99.90;;;;;;5006483;28;20176;-85
2021/11/04 03:16:54;;;;;;;2.37;2.17;;;6.40;99.90;;;;;;5006918;28;20179;-85
2021/11/04 03:19:22;;;;;;;2.67;2.47;;;6.70;99.90;;;;;;5003483;28;20599;-84
2021/11/04 03:21:49;;;;;;;1.55;1.42;;;6.70;99.90;;;;;;5008524;28;20764;-86
2021/11/04 03:24:18;;;;;;;1.98;1.80;;;6.20;99.90;;;;;;5007039;28;20651;-87
2021/11/04 03:26:46;;;;;;;1.52;1.23;;;6.30;99.90;;;;;;5007218;28;20187;-88
2021/11/04 03:29:13;;;;;;;1.80;1.45;;;6.50;99.90;;;;;;5004869;28;20188;-87
2021/11/04 03:31:42;;;;;;;1.48;1.38;;;6.20;99.90;;;;;;5006414;28;20268;-87
2021/11/04 03:34:09;;;;;;;2.15;1.70;;;6.30;99.90;;;;;;5005858;28;20231;-87
2021/11/04 03:36:36;;;;;;;1.90;1.50;;;6.00;99.90;;;;;;5009313;28;20191;-88
2021/11/04 03:39:04;;;;;;;1.33;1.23;;;5.90;99.90;;;;;;5007363;28;20183;-88
2021/11/04 03:41:31;;;;;;;1.58;1.48;;;5.90;99.90;;;;;;5005456;28;20222;-88
2021/11/04 03:43:57;;;;;;;1.55;1.45;;;6.10;99.90;;;;;;5008066;28;20231;-88
2021/11/04 03:46:26;;;;;;;1.50;1.40;;;6.10;99.90;;;;;;5007217;28;20231;-88
2021/11/04 03:48:52;;;;;;;1.45;1.27;;;5.80;99.90;;;;;;5006259;28;20184;-87
2021/11/04 03:51:20;;;;;;;1.48;1.38;;;5.90;99.90;;;;;;5005207;28;20645;-88
2021/11/04 03:53:46;;;;;;;2.20;1.90;;;5.80;99.90;;;;;;5004413;28;20642;-87
2021/11/04 03:56:13;;;;;;;1.73;1.63;;;5.90;99.90;;;;;;5004579;28;20319;-89
2021/11/04 03:58:40;;;;;;;2.30;2.05;;;5.70;99.90;;;;;;5004333;28;20195;-89
2021/11/04 04:01:06;;;;;;;2.10;1.90;;;5.60;99.90;;;;;;5005391;28;20245;-89
2021/11/04 04:03:32;;;;;;;2.72;2.13;;;5.90;99.90;;;;;;5006835;28;20180;-89
2021/11/04 04:06:04;;;;;;;2.00;1.90;;;5.60;99.90;;;;;;5010097;28;20525;-89
2021/11/04 04:08:31;;;;;;;3.33;2.03;;;5.90;99.90;;;;;;5008390;28;20485;-89
2021/11/04 04:10:58;;;;;;;3.45;2.50;;;5.60;99.90;;;;;;5004653;28;20237;-88
2021/11/04 04:13:24;;;;;;;2.42;2.22;;;5.90;99.90;;;;;;5004946;28;20241;-87
2021/11/04 04:15:49;;;;;;;1.97;1.87;;;6.00;99.90;;;;;;5004538;28;20706;-88
2021/11/04 04:18:15;;;;;;;2.47;2.27;;;5.80;99.90;;;;;;5005281;28;20184;-89
2021/11/04 04:20:41;;;;;;;2.00;1.80;;;5.60;99.90;;;;;;5007367;28;20225;-88
2021/11/04 04:23:07;;;;;;;2.50;2.30;;;5.90;99.90;;;;;;5009233;28;20324;-88
2021/11/04 04:25:33;;;;;;;1.90;1.70;;;5.60;99.90;;;;;;5007253;28;20478;-89
2021/11/04 04:27:59;;;;;;;1.60;1.50;;;5.70;99.90;;;;;;5004787;28;20225;-89
2021/11/04 04:30:24;;;;;;;1.73;1.63;;;5.70;99.90;;;;;;5007694;28;20220;-89
2021/11/04 04:32:50;;;;;;;2.00;1.70;;;5.70;99.90;;;;;;5008662;28;20228;-90
2021/11/04 04:35:17;;;;;;;1.97;1.87;;;5.70;99.90;;;;;;5004854;28;20187;-90
2021/11/04 04:37:43;;;;;;;1.67;1.58;;;5.60;99.90;;;;;;5004717;28;20263;-90
2021/11/04 04:40:09;;;;;;;2.07;1.57;;;5.80;99.90;;;;;;5006520;28;20604;-90
2021/11/04 04:42:36;;;;;;;1.92;1.80;;;5.80;99.90;;;;;;5004667;28;20199;-90
2021/11/04 04:45:02;;;;;;;2.45;2.22;;;5.60;99.90;;;;;;5009926;28;20267;-89
2021/11/04 04:47:27;;;;;;;1.90;1.60;;;5.80;99.90;;;;;;5008070;28;20219;-90
2021/11/04 04:49:58;;;;;;;1.70;1.40;;;5.60;99.90;;;;;;5006286;28;20538;-89
2021/11/04 04:52:24;;;;;;;1.58;1.38;;;5.80;99.90;;;;;;5006058;28;20277;-89
2021/11/04 04:54:50;;;;;;;2.08;1.63;;;5.60;99.90;;;;;;5010244;28;20190;-90
2021/11/04 04:57:22;;;;;;;1.37;1.27;;;5.70;99.90;;;;;;5007040;28;20180;-88
2021/11/04 04:59:48;;;;;;;1.40;1.30;;;5.60;99.90;;;;;;5005383;28;20191;-89
2021/11/04 05:02:14;;;;;;;1.48;1.38;;;5.70;99.90;;;;;;5005043;28;20179;-89
2021/11/04 05:04:39;;;;;;;1.30;1.20;;;5.70;99.90;;;;;;5005596;28;20641;-87
2021/11/04 05:07:05;;;;;;;1.50;1.40;;;5.60;99.90;;;;;;5007003;28;20282;-89
2021/11/04 05:09:30;;;;;;;1.47;1.37;;;5.80;99.90;;;;;;5004830;28;20245;-89
2021/11/04 05:11:55;;;;;;;1.00;1.00;;;5.70;99.90;;;;;;5005720;28;20261;-89
2021/11/04 05:14:21;;;;;;;1.10;1.00;;;5.50;99.90;;;;;;5008760;28;20676;-89
2021/11/04 05:16:46;;;;;;;1.20;1.10;;;5.40;99.90;;;;;;5012337;28;20176;-90
2021/11/04 05:19:12;;;;;;;1.60;1.50;;;5.60;99.90;;;;;;5004066;28;20542;-88
2021/11/04 05:21:37;;;;;;;1.37;1.27;;;5.40;99.90;;;;;;4998478;28;20192;-88
2021/11/04 05:24:06;;;;;;;1.30;1.20;;;5.50;99.90;;;;;;5003433;28;20192;-89
2021/11/04 05:26:31;;;;;;;2.20;1.50;;;5.30;99.90;;;;;;5001705;28;20198;-88
2021/11/04 05:28:57;;;;;;;1.57;1.47;;;5.40;99.90;;;;;;5009142;28;20547;-88
2021/11/04 05:31:22;;;;;;;1.83;1.60;;;5.60;99.90;;;;;;5009087;28;20206;-88
2021/11/04 05:33:52;;;;;;;1.80;1.70;;;5.30;99.90;;;;;;5011791;28;20219;-89
2021/11/04 05:36:18;;;;;;;1.45;1.35;;;5.40;99.90;;;;;;5011980;28;20214;-89
2021/11/04 05:38:43;;;;;;;2.87;1.97;;;5.50;99.90;;;;;;5011868;28;20223;-89
2021/11/04 05:41:09;;;;;;;5.50;3.90;;;5.40;99.90;;;;;;5009489;28;20210;-89
2021/11/04 05:43:34;;;;;;;5.80;4.53;;;5.20;99.90;;;;;;5010042;28;20176;-90
2021/11/04 05:46:01;;;;;;;3.67;2.93;;;5.30;99.90;;;;;;5014396;28;20203;-88
2021/11/04 05:48:27;;;;;;;2.95;2.63;;;5.30;99.90;;;;;;5011778;28;20183;-76
2021/11/04 05:50:53;;;;;;;2.07;1.70;;;5.30;99.90;;;;;;5009499;28;20176;-77
2021/11/04 05:53:18;;;;;;;2.30;2.10;;;5.20;99.90;;;;;;5008037;28;20681;-76
2021/11/04 05:55:44;;;;;;;2.50;1.90;;;5.50;99.90;;;;;;5012156;28;20439;-77
2021/11/04 05:58:09;;;;;;;2.63;2.40;;;5.40;99.90;;;;;;5011714;28;20187;-76
2021/11/04 06:00:35;;;;;;;2.80;2.40;;;5.00;99.90;;;;;;5006544;28;20179;-77
2021/11/04 06:03:01;;;;;;;2.57;2.37;;;5.30;99.90;;;;;;5008370;28;20214;-78
2021/11/04 06:05:26;;;;;;;2.07;1.87;;;5.20;99.90;;;;;;5006331;28;20545;-78
2021/11/04 06:07:51;;;;;;;2.43;2.23;;;5.40;99.90;;;;;;5006365;28;20184;-77
2021/11/04 06:10:17;;;;;;;2.87;2.57;;;5.10;99.90;;;;;;5007686;28;20673;-77
2021/11/04 06:12:43;;;;;;;2.90;2.47;;;5.40;99.90;;;;;;5008682;28;20583;-83
2021/11/04 06:15:08;;;;;;;2.70;2.13;;;5.10;99.90;;;;;;5008286;28;20677;-81
2021/11/04 06:17:34;;;;;;;2.67;2.30;;;5.30;99.90;;;;;;5011789;28;20183;-79
2021/11/04 06:20:00;;;;;;;3.08;2.67;;;5.50;99.90;;;;;;5011682;28;20207;-79
2021/11/04 06:22:26;;;;;;;3.73;2.80;;;5.50;99.90;;;;;;5006214;28;20202;-79
2021/11/04 06:24:51;;;;;;;3.10;2.40;;;5.50;99.90;;;;;;5006910;28;20191;-79
2021/11/04 06:27:17;;;;;;;2.73;2.53;;;5.40;99.90;;;;;;5007125;28;20218;-79
2021/11/04 06:29:42;;;;;;;2.80;2.50;;;5.50;99.90;;;;;;5010081;28;20242;-78
2021/11/04 06:32:08;;;;;;;3.40;3.00;;;5.40;99.90;;;;;;5011801;28;20228;-79
2021/11/04 06:34:34;;;;;;;3.30;2.80;;;5.60;99.90;;;;;;5010279;28;20238;-79
2021/11/04 06:36:59;;;;;;;2.63;2.43;;;5.40;99.90;;;;;;5008185;28;20184;-77
2021/11/04 06:39:25;;;;;;;4.20;3.20;;;5.40;99.90;;;;;;5003246;28;20600;-78
2021/11/04 06:41:51;;;;;;;2.87;2.57;;;5.50;99.90;;;;;;5003310;28;20187;-80
2021/11/04 06:44:17;;;;;;;3.17;2.50;;;5.50;99.90;;;;;;5004823;28;20202;-77
2021/11/04 06:46:44;;;;;;;3.23;2.60;;;5.60;99.90;;;;;;5008015;28;20690;-79
2021/11/04 06:49:12;;;;;;;3.55;2.13;;;5.40;99.90;;;;;;5008012;28;20184;-80
2021/11/04 06:51:41;;;;;;;2.63;2.20;;;5.50;99.90;;;;;;5006167;28;20212;-79
2021/11/04 06:54:10;;;;;;;2.60;2.40;;;5.50;99.90;;;;;;5002963;28;20215;-81
2021/11/04 06:56:41;;;;;;;2.40;2.20;;;5.70;99.90;;;;;;5004817;28;20651;-79
2021/11/04 06:59:25;;;;;;;4.75;4.32;;;5.80;99.90;;;;;;5005384;28;20242;-79
2021/11/04 07:01:58;;;;;;;5.45;3.35;;;5.80;99.90;;;;;;4999016;28;20261;-79
2021/11/04 07:04:27;;;;;;;2.00;1.90;;;5.90;99.90;;;;;;5007021;28;20188;-79
2021/11/04 07:07:01;;;;;;;2.10;1.90;;;5.80;99.90;;;;;;5002291;28;20183;-79
2021/11/04 07:09:31;;;;;;;3.40;1.98;;;5.70;99.90;;;;;;5001094;28;20626;-79
2021/11/04 07:11:58;;;;;;;2.63;2.17;;;5.80;99.90;;;;;;4999745;28;20591;-79
2021/11/04 07:14:32;;;;;;;2.97;2.33;;;5.90;99.90;;;;;;4994785;28;20191;-78
2021/11/04 07:17:00;;;;;;;1.65;1.55;;;6.00;99.90;;;;;;5003607;28;20231;-79
2021/11/04 07:19:27;;;;;;;1.70;1.60;;;5.90;99.90;;;;;;5005010;28;20222;-79
2021/11/04 07:22:02;;;;;;;1.88;1.77;;;5.80;99.90;;;;;;5005461;28;20196;-79
2021/11/04 07:24:34;;;;;;;2.50;2.22;;;6.00;99.90;;;;;;5003895;28;20199;-79
2021/11/04 07:27:15;;;;;;;2.80;2.15;;;5.80;99.90;;;;;;5003495;28;20187;-78
2021/11/04 07:29:45;;;;;;;1.70;1.60;;;6.00;99.90;;;;;;4987886;28;20197;-78
2021/11/04 07:32:15;;;;;;;2.00;1.80;;;5.90;99.90;;;;;;4998916;28;20318;-79
2021/11/04 07:34:43;;;;;;;2.25;2.05;;;6.30;99.90;;;;;;5000718;28;20195;-78
2021/11/04 07:37:11;;;;;;;1.75;1.65;;;6.00;99.90;;;;;;5001090;28;20242;-78
2021/11/04 07:39:39;;;;;;;2.53;1.88;;;6.10;99.90;;;;;;5007104;28;20198;-77
2021/11/04 07:42:07;;;;;;;1.80;1.70;;;6.10;99.90;;;;;;5005031;28;20187;-77
2021/11/04 07:44:35;;;;;;;2.15;1.95;;;6.00;99.90;;;;;;5004553;28;20188;-79
2021/11/04 07:47:03;;;;;;;1.70;1.60;;;6.20;99.90;;;;;;5003312;28;21131;-79
2021/11/04 07:49:29;;;;;;;3.10;1.55;;;6.10;99.90;;;;;;5000811;28;20192;-78
2021/11/04 07:52:00;;;;;;;1.40;1.30;;;6.20;99.90;;;;;;4999890;28;20238;-78
2021/11/04 07:54:25;;;;;;;1.67;1.40;;;6.30;99.90;;;;;;5003486;28;20227;-77
2021/11/04 07:56:51;;;;;;;3.67;2.43;;;6.20;99.90;;;;;;5006435;28;20238;-78
2021/11/04 07:59:16;;;;;;;2.60;2.10;;;6.20;99.90;;;;;;5002499;28;20596;-76
2021/11/04 08:01:42;;;;;;;1.90;1.80;;;6.10;99.90;;;;;;5001843;28;20689;-77
2021/11/04 08:04:07;;;;;;;2.10;1.70;;;6.20;99.90;;;;;;5002056;28;20571;-78
2021/11/04 08:06:33;;;;;;;2.00;1.80;;;6.40;99.90;;;;;;5000285;28;20191;-77
2021/11/04 08:09:01;;;;;;;1.90;1.80;;;6.10;99.90;;;;;;5000224;28;20191;-77
2021/11/04 08:11:29;;;;;;;2.30;2.10;;;6.10;99.90;;;;;;5000547;28;20841;-76
2021/11/04 08:13:55;;;;;;;2.90;2.00;;;6.50;99.90;;;;;;5010611;28;20569;-78
2021/11/04 08:16:21;;;;;;;2.10;1.77;;;6.10;99.90;;;;;;5000213;28;20188;-77
2021/11/04 08:18:46;;;;;;;2.53;2.27;;;6.30;99.90;;;;;;5002119;28;20203;-77
2021/11/04 08:21:12;;;;;;;2.13;1.93;;;6.20;99.90;;;;;;5004146;28;20435;-77
2021/11/04 08:23:37;;;;;;;2.77;2.30;;;6.10;99.90;;;;;;5001662;28;20208;-80
2021/11/04 08:26:05;;;;;;;1.93;1.83;;;6.10;99.90;;;;;;5001612;28;20188;-77
2021/11/04 08:28:30;;;;;;;1.70;1.60;;;6.50;99.90;;;;;;4999301;28;20191;-78
2021/11/04 08:30:56;;;;;;;2.50;2.30;;;6.30;99.90;;;;;;5005321;28;20246;-77
2021/11/04 08:33:21;;;;;;;2.00;1.87;;;6.30;99.90;;;;;;5003702;28;20318;-79
2021/11/04 08:35:47;;;;;;;3.77;2.20;;;6.30;99.90;;;;;;5000714;28;20184;-77
2021/11/04 08:38:13;;;;;;;2.80;2.33;;;6.10;99.90;;;;;;5000840;28;20180;-77
2021/11/04 08:40:39;;;;;;;2.93;2.40;;;6.50;99.90;;;;;;5006448;28;20202;-78
2021/11/04 08:43:04;;;;;;;3.87;3.13;;;6.50;99.90;;;;;;5006550;28;20283;-78
2021/11/04 08:45:30;;;;;;;3.00;2.20;;;6.50;99.90;;;;;;5002744;28;20204;-79
2021/11/04 08:47:56;;;;;;;4.30;2.85;;;6.50;99.90;;;;;;4999651;28;20195;-78
2021/11/04 08:50:21;;;;;;;3.30;3.00;;;6.30;99.90;;;;;;5003422;28;20694;-77
2021/11/04 08:52:52;;;;;;;3.60;2.60;;;6.30;99.90;;;;;;5005530;28;20199;-77
2021/11/04 08:55:17;;;;;;;4.30;3.90;;;6.40;99.90;;;;;;5002589;28;20259;-78
2021/11/04 08:57:43;;;;;;;3.70;3.17;;;6.50;99.90;;;;;;5000611;28;20657;-77
2021/11/04 09:00:09;;;;;;;3.87;3.13;;;6.80;99.90;;;;;;5002374;28;20171;-77
2021/11/04 09:02:35;;;;;;;2.75;2.30;;;6.50;99.90;;;;;;4999411;28;20210;-77
2021/11/04 09:05:06;;;;;;;2.33;2.13;;;6.70;99.90;;;;;;5000914;28;20188;-78
2021/11/04 09:07:32;;;;;;;3.05;2.20;;;6.90;99.90;;;;;;5005904;28;20443;-78
2021/11/04 09:09:58;;;;;;;2.73;2.53;;;6.70;99.90;;;;;;5004970;28;20210;-78
2021/11/04 09:12:23;;;;;;;2.60;2.00;;;6.80;99.90;;;;;;4999490;28;20466;-77
2021/11/04 09:14:49;;;;;;;2.00;1.87;;;6.70;99.90;;;;;;5001095;28;20183;-76
2021/11/04 09:17:22;;;;;;;3.40;2.03;;;6.90;99.90;;;;;;5000234;28;20667;-77
2021/11/04 09:19:47;;;;;;;2.20;2.00;;;7.00;99.90;;;;;;5005872;28;20184;-76
2021/11/04 09:22:13;;;;;;;2.00;1.80;;;7.00;99.90;;;;;;5002942;28;20191;-77
2021/11/04 09:24:39;;;;;;;1.87;1.60;;;7.10;99.90;;;;;;5002582;28;20188;-77
2021/11/04 09:27:05;;;;;;;1.53;1.43;;;7.20;99.90;;;;;;5002182;28;20724;-76
2021/11/04 09:29:32;;;;;;;1.85;1.15;;;6.80;99.90;;;;;;5000412;28;21074;-76
2021/11/04 09:31:58;;;;;;;1.50;1.40;;;7.20;99.90;;;;;;5000497;28;20274;-77
2021/11/04 09:34:25;;;;;;;1.40;1.30;;;6.90;99.90;;;;;;5000258;28;20188;-77
2021/11/04 09:36:51;;;;;;;1.08;1.05;;;7.30;99.90;;;;;;5002677;28;20270;-77
2021/11/04 09:39:16;;;;;;;1.10;1.00;;;7.30;99.90;;;;;;5000032;28;20593;-77
2021/11/04 09:41:43;;;;;;;0.77;0.77;;;7.10;99.90;;;;;;5001917;28;20362;-77
2021/11/04 09:44:12;;;;;;;1.35;1.00;;;7.30;99.90;;;;;;5000131;28;20212;-77
2021/11/04 09:46:39;;;;;;;1.40;1.30;;;7.20;99.90;;;;;;5003802;28;20204;-77
2021/11/04 09:49:05;;;;;;;1.52;1.20;;;7.40;99.90;;;;;;4998783;28;20197;-77
2021/11/04 09:51:31;;;;;;;0.83;0.83;;;6.90;99.90;;;;;;5000893;28;20613;-76
2021/11/04 09:53:56;;;;;;;0.90;0.90;;;7.10;99.90;;;;;;5001830;28;20441;-77
2021/11/04 09:56:22;;;;;;;1.77;1.67;;;7.40;99.90;;;;;;5000221;28;20235;-77
2021/11/04 09:58:48;;;;;;;1.60;1.43;;;7.30;99.90;;;;;;5001937;28;20179;-76
2021/11/04 10:01:25;;;;;;;1.55;1.10;;;7.10;99.90;;;;;;5003866;28;20219;-77
2021/11/04 10:03:53;;;;;;;1.17;1.10;;;6.90;99.90;;;;;;5003579;28;20207;-76
2021/11/04 10:06:24;;;;;;;0.98;0.90;;;6.90;99.90;;;;;;4999039;28;20172;-77
2021/11/04 10:08:54;;;;;;;1.10;1.00;;;6.80;99.90;;;;;;4989709;28;20180;-77
2021/11/04 10:11:26;;;;;;;1.13;0.90;;;6.90;99.90;;;;;;5000088;28;20360;-77
2021/11/04 10:13:58;;;;;;;1.13;1.08;;;6.90;99.90;;;;;;5005693;28;20184;-77
2021/11/04 10:16:26;;;;;;;1.17;1.17;;;6.90;99.90;;;;;;5007508;28;20215;-77
2021/11/04 10:18:52;;;;;;;1.10;1.10;;;7.30;99.90;;;;;;5007376;28;20549;-77
2021/11/04 10:21:25;;;;;;;1.10;1.10;;;7.10;99.90;;;;;;5003580;28;20176;-77
2021/11/04 10:23:52;;;;;;;1.25;1.15;;;7.50;99.90;;;;;;5003781;28;20279;-76
2021/11/04 10:26:21;;;;;;;2.75;1.30;;;7.40;99.90;;;;;;5005314;28;20184;-77
2021/11/04 10:28:49;;;;;;;0.90;0.75;;;7.70;99.90;;;;;;5008531;28;20175;-77
2021/11/04 10:31:17;;;;;;;0.95;0.95;;;7.70;99.90;;;;;;5007108;28;20192;-77
2021/11/04 10:33:45;;;;;;;0.82;0.82;;;7.60;99.90;;;;;;5004995;28;20242;-77
2021/11/04 10:36:21;;;;;;;0.90;0.90;;;7.50;99.90;;;;;;5004937;28;20267;-77
2021/11/04 10:38:55;;;;;;;0.82;0.82;;;7.80;99.90;;;;;;5005203;28;20179;-77
2021/11/04 10:41:29;;;;;;;0.82;0.82;;;8.00;99.90;;;;;;5007035;28;20239;-76
2021/11/04 10:44:00;;;;;;;0.93;0.77;;;7.90;99.90;;;;;;5008237;28;20618;-78
2021/11/04 10:46:26;;;;;;;1.67;1.10;;;7.90;99.90;;;;;;5006238;28;20302;-76
2021/11/04 10:49:00;;;;;;;0.80;0.80;;;8.10;99.90;;;;;;5003167;28;20259;-76
2021/11/04 10:51:27;;;;;;;1.23;1.13;;;7.90;99.90;;;;;;5005668;28;20192;-76
2021/11/04 10:54:13;;;;;;;0.80;0.80;;;7.90;99.90;;;;;;5007692;28;20569;-77
2021/11/04 10:56:40;;;;;;;1.05;0.90;;;8.20;99.90;;;;;;5004329;28;20238;-83
2021/11/04 10:59:09;;;;;;;0.85;0.85;;;8.20;99.90;;;;;;5004215;28;20280;-77
2021/11/04 11:01:38;;;;;;;1.00;0.90;;;8.20;99.90;;;;;;4997974;28;20198;-76
2021/11/04 11:04:14;;;;;;;0.90;0.90;;;7.90;99.90;;;;;;5008394;28;20667;-76
2021/11/04 11:06:45;;;;;;;1.30;1.20;;;7.80;99.90;;;;;;5004508;28;20202;-76
2021/11/04 11:09:14;;;;;;;1.65;1.40;;;7.90;99.90;;;;;;5003218;28;20192;-76
2021/11/04 11:11:42;;;;;;;1.88;1.77;;;7.80;99.90;;;;;;4985832;28;20621;-76
2021/11/04 11:14:09;;;;;;;2.30;1.60;;;7.60;99.90;;;;;;5003297;28;20207;-76
2021/11/04 11:16:36;;;;;;;1.95;1.75;;;7.30;99.90;;;;;;5008032;28;20669;-77
2021/11/04 11:19:02;;;;;;;1.52;1.42;;;7.40;99.90;;;;;;5008385;28;20191;-76
2021/11/04 11:21:33;;;;;;;2.03;1.83;;;7.60;99.90;;;;;;5004702;28;20180;-76
2021/11/04 11:24:00;;;;;;;2.20;2.00;;;7.40;99.90;;;;;;5005952;28;20848;-76
2021/11/04 11:26:27;;;;;;;1.92;1.83;;;7.40;99.90;;;;;;5005480;28;20226;-76
2021/11/04 11:28:55;;;;;;;2.75;2.05;;;7.20;99.90;;;;;;5007630;28;20642;-76
2021/11/04 11:31:24;;;;;;;3.80;2.08;;;7.40;99.90;;;;;;4999661;28;20304;-77
2021/11/04 11:34:17;;;;;;;2.35;2.10;;;7.20;99.90;;;;;;5001621;28;20235;-77
2021/11/04 11:37:10;;;;;;;3.40;2.83;;;7.30;99.90;;;;;;5002541;28;20184;-76
2021/11/04 11:39:37;;;;;;;3.10;2.80;;;7.00;99.90;;;;;;5003286;28;20561;-76
2021/11/04 11:42:02;;;;;;;3.50;3.15;;;7.30;99.90;;;;;;5001991;28;20561;-77
2021/11/04 11:45:04;;;;;;;3.90;3.43;;;7.00;99.90;;;;;;5007241;28;21153;-77
2021/11/04 11:47:32;;;;;;;3.17;2.88;;;7.30;99.90;;;;;;4988023;28;20199;-77
2021/11/04 11:50:19;;;;;;;3.50;3.20;;;6.80;99.90;;;;;;5002014;28;20607;-77
2021/11/04 11:52:57;;;;;;;3.83;3.45;;;7.20;99.90;;;;;;5003952;28;20289;-77
2021/11/04 11:55:41;;;;;;;3.92;3.53;;;7.10;99.90;;;;;;5003193;28;20187;-76
2021/11/04 11:58:13;;;;;;;4.45;4.05;;;7.10;99.90;;;;;;5006668;28;20604;-76
2021/11/04 12:00:56;;;;;;;15.18;11.52;;;7.20;99.90;;;;;;5004035;28;20223;-76
2021/11/04 12:03:31;;;;;;;7.68;5.65;;;7.60;99.90;;;;;;4995627;28;20203;-77
2021/11/04 12:05:57;;;;;;;6.00;4.45;;;7.60;99.90;;;;;;5007032;28;20219;-76
2021/11/04 12:08:28;;;;;;;6.00;4.47;;;7.70;99.90;;;;;;5001210;28;20200;-76
2021/11/04 12:10:55;;;;;;;5.05;4.35;;;7.90;99.90;;;;;;5002405;28;20187;-77
2021/11/04 12:13:31;;;;;;;7.03;5.22;;;7.70;99.90;;;;;;5000094;28;20294;-76
2021/11/04 12:16:11;;;;;;;6.82;5.80;;;7.90;99.90;;;;;;5006571;28;20203;-77
2021/11/04 12:18:36;;;;;;;7.75;6.10;;;7.60;99.90;;;;;;5006670;28;20188;-76
2021/11/04 12:21:05;;;;;;;8.00;6.80;;;7.80;99.90;;;;;;5004066;28;20656;-77
2021/11/04 12:23:35;;;;;;;10.13;6.63;;;8.10;99.90;;;;;;5000818;28;20211;-76
2021/11/04 12:26:07;;;;;;;9.73;7.40;;;8.20;99.90;;;;;;5005482;28;20188;-76
2021/11/04 12:28:47;;;;;;;9.60;7.13;;;8.30;99.90;;;;;;5004708;28;20200;-77
2021/11/04 12:31:18;;;;;;;7.95;7.07;;;8.20;99.90;;;;;;4998474;28;20187;-77
2021/11/04 12:33:43;;;;;;;10.20;7.25;;;8.40;99.90;;;;;;5001091;28;20318;-77
2021/11/04 12:36:09;;;;;;;7.67;6.87;;;8.10;99.90;;;;;;5002126;28;20367;-74
2021/11/04 12:38:42;;;;;;;8.50;6.60;;;8.30;99.90;;;;;;5000301;28;20294;-74
2021/11/04 12:41:14;;;;;;;9.07;7.30;;;8.20;99.90;;;;;;5001374;28;20836;-74
2021/11/04 12:43:41;;;;;;;7.63;6.70;;;8.30;99.90;;;;;;5005047;28;20280;-75
2021/11/04 12:46:15;;;;;;;7.05;6.00;;;8.20;99.90;;;;;;5005247;28;20682;-74
2021/11/04 12:49:02;;;;;;;8.32;5.20;;;8.70;99.90;;;;;;4981391;28;20191;-74
2021/11/04 12:51:42;;;;;;;7.22;5.80;;;8.30;99.90;;;;;;4987134;28;20654;-75
2021/11/04 12:54:10;;;;;;;5.82;5.15;;;8.40;99.90;;;;;;5000892;28;20191;-74
2021/11/04 12:56:53;;;;;;;5.20;4.63;;;8.40;99.90;;;;;;5005883;28;20184;-75
2021/11/04 12:59:37;;;;;;;7.05;4.53;;;8.60;99.90;;;;;;4996479;28;20275;-75